CFG9VL EDDH-GCTS
Flight info
| Callsign | CFG9VL |
|---|---|
| Flight time | N/A |
| Altitude | 30000 |
| Route | WSN5G/33 WSN N125 ONTAZ DCT NIK DCT CIV/N0458F310 N872 MEDIL DCT KOVIN DCT DUCRA UM728 RESMI UN857 DISAK DCT ARKIP DCT ARNAV DCT LMG DCT UVELI/N0462F330 DCT OSMOB DCT ARVID DCT PPN DCT NOLSA DCT ALEPO DCT VASUM N10 BAN DCT GOTOR DCT KAMPO DCT MONTO DCT MOLIN DCT HIJ DCT SVL DCT CLANA DCT KORNO UN857 TERTO |
| Aircraft | A321/M-SDE3FGIJ1LORVWXYZ/LB1 |
Departure
| Time | 2026-05-05 13:12 |
|---|---|
| Airport | Hamburg Helmut Schmidt Airport (EDDH) |
Arrival
| Time | N/A |
|---|---|
| Airport | Tenerife Sur Airport (GCTS) |
| Time | Latitude | Longitude | Altitude | Speed | Heading |
|---|---|---|---|---|---|
| 2026-05-05 12:36 | 53.63330 | 10.00341 | 49 ft | 0 kts | 86° |
| 2026-05-05 12:37 | 53.63292 | 10.00350 | 49 ft | 0 kts | 87° |
| 2026-05-05 13:01 | 53.63292 | 10.00339 | 48 ft | 3 kts | 87° |
| 2026-05-05 13:01 | 53.63291 | 10.00309 | 48 ft | 3 kts | 87° |
| 2026-05-05 13:01 | 53.63290 | 10.00278 | 48 ft | 3 kts | 87° |
| 2026-05-05 13:02 | 53.63290 | 10.00248 | 48 ft | 3 kts | 118° |
| 2026-05-05 13:02 | 53.63304 | 10.00234 | 42 ft | 2 kts | 177° |
| 2026-05-05 13:02 | 53.63309 | 10.00234 | 43 ft | 3 kts | 175° |
| 2026-05-05 13:02 | 53.63310 | 10.00234 | 43 ft | 0 kts | 175° |
| 2026-05-05 13:05 | 53.63293 | 10.00234 | 47 ft | 8 kts | 182° |
| 2026-05-05 13:05 | 53.63242 | 10.00157 | 48 ft | 10 kts | 229° |
| 2026-05-05 13:05 | 53.63203 | 10.00081 | 48 ft | 8 kts | 230° |
| 2026-05-05 13:05 | 53.63164 | 10.00003 | 48 ft | 8 kts | 229° |
| 2026-05-05 13:06 | 53.63123 | 9.99921 | 48 ft | 9 kts | 230° |
| 2026-05-05 13:06 | 53.63074 | 9.99894 | 48 ft | 10 kts | 163° |
| 2026-05-05 13:06 | 53.62996 | 9.99957 | 45 ft | 12 kts | 152° |
| 2026-05-05 13:06 | 53.62988 | 9.99964 | 47 ft | 0 kts | 153° |
| 2026-05-05 13:07 | 53.62976 | 9.99975 | 48 ft | 7 kts | 153° |
| 2026-05-05 13:08 | 53.62907 | 9.99945 | 48 ft | 14 kts | 238° |
| 2026-05-05 13:08 | 53.62895 | 9.99908 | 47 ft | 0 kts | 242° |
| 2026-05-05 13:08 | 53.62894 | 9.99906 | 47 ft | 0 kts | 242° |
| 2026-05-05 13:08 | 53.62892 | 9.99899 | 47 ft | 1 kts | 242° |
| 2026-05-05 13:09 | 53.62891 | 9.99894 | 47 ft | 0 kts | 242° |
| 2026-05-05 13:10 | 53.62890 | 9.99891 | 47 ft | 2 kts | 242° |
| 2026-05-05 13:10 | 53.62862 | 9.99799 | 45 ft | 9 kts | 243° |
| 2026-05-05 13:10 | 53.62886 | 9.99731 | 45 ft | 6 kts | 332° |
| 2026-05-05 13:10 | 53.62887 | 9.99730 | 45 ft | 0 kts | 332° |
| 2026-05-05 13:11 | 53.62972 | 9.99655 | 45 ft | 43 kts | 332° |
| 2026-05-05 13:11 | 53.63450 | 9.99241 | 45 ft | 108 kts | 333° |
| 2026-05-05 13:12 | 53.64283 | 9.98522 | 53 ft | 158 kts | 333° |
| 2026-05-05 13:12 | 53.65351 | 9.97591 | 322 ft | 175 kts | 332° |
| 2026-05-05 13:12 | 53.66418 | 9.96687 | 1023 ft | 172 kts | 336° |
| 2026-05-05 13:12 | 53.67488 | 9.95775 | 1490 ft | 175 kts | 336° |
| 2026-05-05 13:13 | 53.68633 | 9.94802 | 1645 ft | 193 kts | 335° |
| 2026-05-05 13:13 | 53.69877 | 9.93741 | 1792 ft | 207 kts | 335° |
| 2026-05-05 13:13 | 53.71001 | 9.92187 | 2055 ft | 216 kts | 306° |
| 2026-05-05 13:13 | 53.71437 | 9.89736 | 2297 ft | 226 kts | 270° |
| 2026-05-05 13:14 | 53.71056 | 9.87120 | 2499 ft | 238 kts | 253° |
| 2026-05-05 13:14 | 53.70509 | 9.84369 | 2752 ft | 255 kts | 252° |
| 2026-05-05 13:14 | 53.69922 | 9.81454 | 3172 ft | 266 kts | 252° |
| 2026-05-05 13:14 | 53.69326 | 9.78485 | 3861 ft | 267 kts | 252° |
| 2026-05-05 13:15 | 53.68731 | 9.75522 | 4614 ft | 266 kts | 252° |
| 2026-05-05 13:15 | 53.68145 | 9.72583 | 5373 ft | 263 kts | 252° |
| 2026-05-05 13:15 | 53.67562 | 9.69638 | 6000 ft | 266 kts | 252° |
| 2026-05-05 13:15 | 53.66976 | 9.66674 | 6649 ft | 267 kts | 252° |
| 2026-05-05 13:16 | 53.66380 | 9.63661 | 7275 ft | 268 kts | 252° |
| 2026-05-05 13:16 | 53.65789 | 9.60669 | 7883 ft | 270 kts | 252° |
| 2026-05-05 13:16 | 53.65095 | 9.57726 | 8468 ft | 272 kts | 241° |
| 2026-05-05 13:16 | 53.64033 | 9.55067 | 9049 ft | 275 kts | 234° |
| 2026-05-05 13:17 | 53.62905 | 9.52447 | 9645 ft | 277 kts | 235° |
| 2026-05-05 13:17 | 53.61767 | 9.49802 | 9889 ft | 279 kts | 234° |
| 2026-05-05 13:17 | 53.60618 | 9.47126 | 10116 ft | 290 kts | 234° |
| 2026-05-05 13:17 | 53.59404 | 9.44293 | 10241 ft | 307 kts | 234° |
| 2026-05-05 13:18 | 53.58116 | 9.41292 | 10365 ft | 325 kts | 234° |
| 2026-05-05 13:18 | 53.56751 | 9.38126 | 10474 ft | 343 kts | 234° |
| 2026-05-05 13:18 | 53.55323 | 9.34823 | 10751 ft | 354 kts | 234° |
| 2026-05-05 13:18 | 53.53864 | 9.31448 | 11242 ft | 359 kts | 234° |
| 2026-05-05 13:19 | 53.52392 | 9.28041 | 11767 ft | 362 kts | 234° |
| 2026-05-05 13:19 | 53.50907 | 9.24605 | 12311 ft | 365 kts | 234° |
| 2026-05-05 13:19 | 53.49410 | 9.21143 | 12851 ft | 368 kts | 235° |
| 2026-05-05 13:19 | 53.47897 | 9.17650 | 13391 ft | 371 kts | 235° |
| 2026-05-05 13:20 | 53.46372 | 9.14136 | 13896 ft | 374 kts | 235° |
| 2026-05-05 13:20 | 53.44835 | 9.10599 | 14377 ft | 376 kts | 235° |
| 2026-05-05 13:20 | 53.43290 | 9.07049 | 14868 ft | 378 kts | 235° |
| 2026-05-05 13:20 | 53.41735 | 9.03487 | 15355 ft | 379 kts | 235° |
| 2026-05-05 13:21 | 53.40169 | 8.99907 | 15831 ft | 381 kts | 235° |
| 2026-05-05 13:21 | 53.38590 | 8.96306 | 16219 ft | 386 kts | 235° |
| 2026-05-05 13:21 | 53.36996 | 8.92675 | 16647 ft | 388 kts | 235° |
| 2026-05-05 13:21 | 53.35416 | 8.88999 | 17105 ft | 390 kts | 238° |
| 2026-05-05 13:22 | 53.34167 | 8.84978 | 17553 ft | 391 kts | 249° |
| 2026-05-05 13:22 | 53.33227 | 8.80708 | 18011 ft | 392 kts | 250° |
| 2026-05-05 13:22 | 53.32286 | 8.76409 | 18433 ft | 394 kts | 250° |
| 2026-05-05 13:22 | 53.31332 | 8.72092 | 18836 ft | 396 kts | 250° |
| 2026-05-05 13:23 | 53.30372 | 8.67775 | 19234 ft | 397 kts | 250° |
| 2026-05-05 13:23 | 53.29406 | 8.63433 | 19627 ft | 399 kts | 250° |
| 2026-05-05 13:23 | 53.28429 | 8.59013 | 20023 ft | 401 kts | 250° |
| 2026-05-05 13:23 | 53.27481 | 8.54695 | 20408 ft | 402 kts | 250° |
| 2026-05-05 13:24 | 53.26504 | 8.50242 | 20804 ft | 404 kts | 250° |
| 2026-05-05 13:24 | 53.25578 | 8.45804 | 21186 ft | 405 kts | 252° |
| 2026-05-05 13:24 | 53.24718 | 8.41317 | 21548 ft | 407 kts | 253° |
| 2026-05-05 13:24 | 53.23891 | 8.36784 | 21898 ft | 409 kts | 253° |
| 2026-05-05 13:25 | 53.23069 | 8.32233 | 22236 ft | 410 kts | 253° |
| 2026-05-05 13:25 | 53.22237 | 8.27673 | 22572 ft | 412 kts | 253° |
| 2026-05-05 13:25 | 53.21390 | 8.23103 | 22898 ft | 413 kts | 252° |
| 2026-05-05 13:25 | 53.20525 | 8.18524 | 23226 ft | 415 kts | 252° |
| 2026-05-05 13:26 | 53.19647 | 8.13933 | 23548 ft | 416 kts | 252° |
| 2026-05-05 13:26 | 53.18763 | 8.09333 | 23840 ft | 417 kts | 252° |
| 2026-05-05 13:26 | 53.17884 | 8.04725 | 24122 ft | 418 kts | 252° |
| 2026-05-05 13:26 | 53.17007 | 8.00105 | 24409 ft | 419 kts | 252° |
| 2026-05-05 13:27 | 53.16427 | 7.97039 | 24588 ft | 419 kts | 252° |
| 2026-05-05 13:27 | 53.15551 | 7.92402 | 24862 ft | 420 kts | 252° |
| 2026-05-05 13:27 | 53.14674 | 7.87754 | 25129 ft | 421 kts | 252° |
| 2026-05-05 13:27 | 53.13796 | 7.83107 | 25393 ft | 422 kts | 252° |
| 2026-05-05 13:28 | 53.12914 | 7.78447 | 25642 ft | 422 kts | 252° |
| 2026-05-05 13:28 | 53.12024 | 7.73784 | 25907 ft | 423 kts | 252° |
| 2026-05-05 13:28 | 53.11128 | 7.69111 | 26166 ft | 424 kts | 252° |
| 2026-05-05 13:28 | 53.10226 | 7.64433 | 26430 ft | 425 kts | 251° |
| 2026-05-05 13:29 | 53.09319 | 7.59750 | 26689 ft | 426 kts | 251° |
| 2026-05-05 13:29 | 53.08407 | 7.55055 | 26947 ft | 427 kts | 251° |
| 2026-05-05 13:29 | 53.07483 | 7.50291 | 27242 ft | 427 kts | 251° |
| 2026-05-05 13:29 | 53.06573 | 7.45609 | 27614 ft | 425 kts | 251° |
| 2026-05-05 13:30 | 53.05667 | 7.40947 | 27988 ft | 423 kts | 251° |
| 2026-05-05 13:30 | 53.04762 | 7.36310 | 28359 ft | 421 kts | 251° |
| 2026-05-05 13:30 | 53.03856 | 7.31697 | 28707 ft | 419 kts | 251° |
| 2026-05-05 13:30 | 53.02949 | 7.27104 | 29022 ft | 417 kts | 249° |
| 2026-05-05 13:31 | 53.01789 | 7.22697 | 29226 ft | 418 kts | 240° |
| 2026-05-05 13:31 | 53.00201 | 7.18651 | 29451 ft | 418 kts | 232° |
| 2026-05-05 13:31 | 52.98260 | 7.15061 | 29729 ft | 418 kts | 227° |
| 2026-05-05 13:31 | 52.96243 | 7.11584 | 29918 ft | 417 kts | 227° |
| 2026-05-05 13:32 | 52.92272 | 7.04707 | 29939 ft | 410 kts | 227° |
| 2026-05-05 13:32 | 52.88330 | 6.97880 | 29935 ft | 410 kts | 227° |
| 2026-05-05 13:33 | 52.84386 | 6.91068 | 29932 ft | 410 kts | 227° |
| 2026-05-05 13:33 | 52.80437 | 6.84284 | 29912 ft | 410 kts | 226° |
| 2026-05-05 13:34 | 52.76454 | 6.77484 | 29923 ft | 412 kts | 226° |
| 2026-05-05 13:34 | 52.72437 | 6.70632 | 29933 ft | 420 kts | 226° |
| 2026-05-05 13:35 | 52.68293 | 6.63582 | 29930 ft | 429 kts | 226° |
| 2026-05-05 13:35 | 52.64119 | 6.56502 | 29928 ft | 431 kts | 226° |
| 2026-05-05 13:36 | 52.59937 | 6.49424 | 29934 ft | 431 kts | 226° |
| 2026-05-05 13:36 | 52.55747 | 6.42341 | 29923 ft | 433 kts | 226° |
| 2026-05-05 13:37 | 52.51542 | 6.35261 | 29922 ft | 433 kts | 225° |
| 2026-05-05 13:37 | 52.47329 | 6.28196 | 29920 ft | 433 kts | 225° |
| 2026-05-05 13:38 | 52.43116 | 6.21141 | 29922 ft | 433 kts | 225° |
| 2026-05-05 13:38 | 52.38894 | 6.14090 | 29923 ft | 433 kts | 225° |
| 2026-05-05 13:39 | 52.34669 | 6.07069 | 29912 ft | 433 kts | 225° |
| 2026-05-05 13:39 | 52.30444 | 6.00075 | 29924 ft | 432 kts | 225° |
| 2026-05-05 13:40 | 52.26223 | 5.93106 | 29940 ft | 431 kts | 225° |
| 2026-05-05 13:40 | 52.21994 | 5.86135 | 29910 ft | 433 kts | 225° |
| 2026-05-05 13:41 | 52.17753 | 5.79157 | 29900 ft | 434 kts | 225° |
| 2026-05-05 13:41 | 52.13500 | 5.72179 | 29893 ft | 434 kts | 224° |
| 2026-05-05 13:42 | 52.09237 | 5.65216 | 29910 ft | 434 kts | 224° |
| 2026-05-05 13:42 | 52.04977 | 5.58279 | 29903 ft | 433 kts | 224° |
| 2026-05-05 13:43 | 52.00715 | 5.51348 | 29902 ft | 433 kts | 224° |
| 2026-05-05 13:43 | 51.96420 | 5.44392 | 29908 ft | 433 kts | 224° |
| 2026-05-05 13:44 | 51.92177 | 5.37544 | 29904 ft | 433 kts | 223° |
| 2026-05-05 13:44 | 51.87873 | 5.30604 | 29898 ft | 434 kts | 223° |
| 2026-05-05 13:45 | 51.83583 | 5.23708 | 29895 ft | 435 kts | 223° |
| 2026-05-05 13:45 | 51.79279 | 5.16816 | 29897 ft | 436 kts | 223° |
| 2026-05-05 13:46 | 51.74970 | 5.09929 | 29900 ft | 436 kts | 223° |
| 2026-05-05 13:46 | 51.70650 | 5.03043 | 29908 ft | 437 kts | 223° |
| 2026-05-05 13:47 | 51.66318 | 4.96161 | 29899 ft | 438 kts | 223° |
| 2026-05-05 13:47 | 51.61972 | 4.89264 | 29903 ft | 439 kts | 223° |
| 2026-05-05 13:48 | 51.57608 | 4.82377 | 29912 ft | 440 kts | 223° |
| 2026-05-05 13:48 | 51.53236 | 4.75495 | 29928 ft | 440 kts | 223° |
| 2026-05-05 13:49 | 51.48863 | 4.68625 | 29919 ft | 440 kts | 223° |
| 2026-05-05 13:49 | 51.44486 | 4.61770 | 29908 ft | 441 kts | 222° |
| 2026-05-05 13:50 | 51.40804 | 4.56020 | 29906 ft | 442 kts | 222° |